createdAt,value
2022-09-10T00:01:22.903Z,100163.06
2022-09-10T00:03:50.959Z,100156.44
2022-09-10T00:06:18.860Z,100155.16
2022-09-10T00:08:47.542Z,100154.33
2022-09-10T00:11:15.056Z,100150.40
2022-09-10T00:13:43.097Z,100148.96
2022-09-10T00:16:14.269Z,100147.27
2022-09-10T00:18:42.334Z,100142.66
2022-09-10T00:21:13.686Z,100137.64
2022-09-10T00:23:41.361Z,100142.71
2022-09-10T00:26:21.629Z,100145.80
2022-09-10T00:28:51.348Z,100147.55
2022-09-10T00:31:21.557Z,100142.97
2022-09-10T00:33:50.637Z,100133.58
2022-09-10T00:36:25.426Z,100132.04
2022-09-10T00:38:54.872Z,100136.83
2022-09-10T00:41:24.878Z,100134.58
2022-09-10T00:43:58.773Z,100140.52
2022-09-10T00:46:45.625Z,100140.20
2022-09-10T00:49:20.213Z,100137.48
2022-09-10T00:51:50.337Z,100134.81
2022-09-10T00:54:22.074Z,100132.42
2022-09-10T00:56:52.031Z,100127.88
2022-09-10T00:59:21.925Z,100126.41
2022-09-10T01:01:50.083Z,100130.56
2022-09-10T01:04:18.109Z,100131.14
2022-09-10T01:06:47.404Z,100129.82
2022-09-10T01:09:15.083Z,100128.84
2022-09-10T01:11:42.474Z,100129.88
2022-09-10T01:14:32.259Z,100126.48
2022-09-10T01:17:10.965Z,100125.11
2022-09-10T01:20:11.218Z,100121.41
2022-09-10T01:23:18.003Z,100120.45
2022-09-10T01:26:07.338Z,100121.17
2022-09-10T01:29:09.835Z,100119.06
2022-09-10T01:31:50.894Z,100119.53
2022-09-10T01:34:26.991Z,100118.23
2022-09-10T01:37:01.861Z,100118.52
2022-09-10T01:39:29.512Z,100114.79
2022-09-10T01:41:57.004Z,100105.35
2022-09-10T01:44:47.981Z,100105.24
2022-09-10T01:47:21.295Z,100101.44
2022-09-10T01:50:11.392Z,100097.07
2022-09-10T01:52:58.091Z,100094.33
2022-09-10T01:55:58.542Z,100088.39
2022-09-10T01:58:41.926Z,100086.95
2022-09-10T02:01:28.121Z,100089.04
2022-09-10T02:03:59.579Z,100087.47
2022-09-10T02:06:31.242Z,100087.11
2022-09-10T02:09:00.423Z,100080.73
2022-09-10T02:11:28.907Z,100079.14
2022-09-10T02:13:58.324Z,100079.45
2022-09-10T02:16:33.728Z,100076.10
2022-09-10T02:19:02.459Z,100078.94
2022-09-10T02:21:31.933Z,100078.02
2022-09-10T02:24:05.785Z,100079.61
2022-09-10T02:26:34.372Z,100074.85
2022-09-10T02:29:01.952Z,100074.34
2022-09-10T02:31:29.817Z,100075.55
2022-09-10T02:33:57.265Z,100077.10
2022-09-10T02:36:26.135Z,100072.92
2022-09-10T02:38:53.715Z,100073.81
2022-09-10T02:41:22.870Z,100073.37
2022-09-10T02:43:50.927Z,100069.73
2022-09-10T02:46:19.079Z,100069.90
2022-09-10T02:48:46.511Z,100064.66
2022-09-10T02:51:14.238Z,100055.98
2022-09-10T02:53:41.694Z,100055.83
2022-09-10T02:56:09.286Z,100052.95
2022-09-10T02:58:36.766Z,100049.96
2022-09-10T03:01:14.758Z,100048.63
2022-09-10T03:03:42.929Z,100046.73
2022-09-10T03:06:10.442Z,100051.31
2022-09-10T03:08:37.952Z,100048.70
2022-09-10T03:11:07.075Z,100045.67
2022-09-10T03:13:34.856Z,100043.08
2022-09-10T03:16:04.102Z,100041.94
2022-09-10T03:18:31.809Z,100039.77
2022-09-10T03:21:18.208Z,100040.41
2022-09-10T03:23:49.529Z,100040.14
2022-09-10T03:26:19.967Z,100041.00
2022-09-10T03:28:48.434Z,100037.52
2022-09-10T03:31:16.448Z,100037.31
2022-09-10T03:33:46.119Z,100031.79
2022-09-10T03:36:13.700Z,100030.52
2022-09-10T03:38:41.199Z,100033.13
2022-09-10T03:41:09.041Z,100035.48
2022-09-10T03:43:37.278Z,100026.63
2022-09-10T03:46:05.401Z,100028.63
2022-09-10T03:48:33.306Z,100026.48
2022-09-10T03:51:00.740Z,100022.20
2022-09-10T03:53:28.210Z,100023.75
2022-09-10T03:55:56.329Z,100024.71
2022-09-10T03:58:23.936Z,100024.55
2022-09-10T04:00:51.699Z,100025.87
2022-09-10T04:03:20.193Z,100024.02
2022-09-10T04:05:47.674Z,100024.86
2022-09-10T04:08:15.809Z,100018.58
2022-09-10T04:10:47.231Z,100023.23
2022-09-10T04:13:14.644Z,100021.82
2022-09-10T04:15:46.100Z,100023.38
2022-09-10T04:18:14.255Z,100030.94
2022-09-10T04:20:43.553Z,100032.45
2022-09-10T04:23:10.968Z,100026.69
2022-09-10T04:25:38.609Z,100027.29
2022-09-10T04:28:06.065Z,100024.40
2022-09-10T04:30:33.792Z,100019.66
2022-09-10T04:33:01.232Z,100018.73
2022-09-10T04:35:28.694Z,100013.84
2022-09-10T04:37:56.115Z,100012.36
2022-09-10T04:40:23.924Z,100014.25
2022-09-10T04:42:51.339Z,100017.01
2022-09-10T04:45:19.154Z,100012.06
2022-09-10T04:47:46.712Z,100013.73
2022-09-10T04:50:16.909Z,100008.10
2022-09-10T04:52:44.373Z,100013.58
2022-09-10T04:55:12.294Z,100018.79
2022-09-10T04:57:39.776Z,100020.38
2022-09-10T05:00:07.787Z,100019.60
2022-09-10T05:02:37.609Z,100015.45
2022-09-10T05:05:05.741Z,100010.85
2022-09-10T05:07:33.180Z,100004.34
2022-09-10T05:10:00.617Z,99999.14
2022-09-10T05:12:28.171Z,99997.70
2022-09-10T05:14:55.670Z,99992.58
2022-09-10T05:17:23.119Z,99996.08
2022-09-10T05:19:50.542Z,99997.05
2022-09-10T05:22:18.011Z,99997.80
2022-09-10T05:24:45.426Z,100002.05
2022-09-10T05:27:13.060Z,100007.60
2022-09-10T05:29:40.483Z,100013.45
2022-09-10T05:32:09.391Z,100014.50
2022-09-10T05:34:39.813Z,100017.91
2022-09-10T05:37:08.820Z,100020.32
2022-09-10T05:39:36.325Z,100021.17
2022-09-10T05:42:03.968Z,100025.30
2022-09-10T05:44:31.381Z,100028.52
2022-09-10T05:46:59.686Z,100027.41
2022-09-10T05:49:27.296Z,100029.02
2022-09-10T05:51:54.847Z,100027.81
2022-09-10T05:54:22.292Z,100032.17
2022-09-10T05:56:49.743Z,100031.06
2022-09-10T05:59:17.374Z,100031.31
2022-09-10T06:01:44.906Z,100031.21
2022-09-10T06:04:12.336Z,100033.27
2022-09-10T06:06:40.299Z,100033.50
2022-09-10T06:09:07.782Z,100033.46
2022-09-10T06:11:35.254Z,100032.36
2022-09-10T06:14:02.732Z,100031.91
2022-09-10T06:16:31.032Z,100027.69
2022-09-10T06:18:59.498Z,100026.75
2022-09-10T06:21:28.418Z,100020.34
2022-09-10T06:23:56.366Z,100022.76
2022-09-10T06:26:24.241Z,100025.17
2022-09-10T06:28:51.713Z,100022.30
2022-09-10T06:31:20.024Z,100022.70
2022-09-10T06:33:49.063Z,100017.59
2022-09-10T06:36:16.662Z,100015.66
2022-09-10T06:38:45.126Z,100017.80
2022-09-10T06:41:16.156Z,100021.56
2022-09-10T06:43:44.020Z,100017.95
2022-09-10T06:46:50.741Z,100013.14
2022-09-10T06:49:04.582Z,100013.98
2022-09-10T06:51:33.729Z,100016.14
2022-09-10T06:54:02.784Z,100019.39
2022-09-10T06:56:30.373Z,100016.34
2022-09-10T06:59:01.957Z,100010.80
2022-09-10T07:01:29.907Z,100006.33
2022-09-10T07:03:59.607Z,100009.10
2022-09-10T07:06:28.597Z,100004.72
2022-09-10T07:08:57.718Z,100004.05
2022-09-10T07:11:28.539Z,100004.71
2022-09-10T07:13:56.216Z,100005.20
2022-09-10T07:16:26.386Z,99998.48
2022-09-10T07:18:56.516Z,99999.43
2022-09-10T07:21:27.304Z,99997.95
2022-09-10T07:23:57.588Z,99995.95
2022-09-10T07:26:25.776Z,99999.59
2022-09-10T07:28:53.629Z,100000.13
2022-09-10T07:31:28.918Z,99996.20
2022-09-10T07:34:01.931Z,99994.85
2022-09-10T07:36:30.384Z,99999.80
2022-09-10T07:39:01.406Z,100005.52
2022-09-10T07:41:30.869Z,100007.70
2022-09-10T07:43:59.457Z,100004.61
2022-09-10T07:46:28.355Z,100001.54
2022-09-10T07:48:58.304Z,99998.70
2022-09-10T07:51:28.228Z,99997.73
2022-09-10T07:53:59.610Z,99999.22
2022-09-10T07:56:27.540Z,100004.77
2022-09-10T07:58:56.981Z,100007.53
2022-09-10T08:01:24.951Z,100006.79
2022-09-10T08:03:56.316Z,100004.92
2022-09-10T08:06:24.384Z,100001.55
2022-09-10T08:08:52.864Z,100004.05
2022-09-10T08:11:21.553Z,100004.38
2022-09-10T08:13:51.331Z,99997.86
2022-09-10T08:16:24.860Z,99987.26
2022-09-10T08:18:55.587Z,99988.36
2022-09-10T08:21:23.093Z,99993.48
2022-09-10T08:23:54.000Z,99994.65
2022-09-10T08:26:23.687Z,99993.50
2022-09-10T08:28:52.364Z,100000.54
2022-09-10T08:31:19.852Z,100004.20
2022-09-10T08:33:49.446Z,100000.69
2022-09-10T08:36:18.310Z,100003.33
2022-09-10T08:38:46.277Z,100002.52
2022-09-10T08:41:25.205Z,100000.67
2022-09-10T08:44:00.036Z,99996.83
2022-09-10T08:46:33.326Z,100003.17
2022-09-10T08:49:22.996Z,100012.85
2022-09-10T08:51:57.420Z,100013.50
2022-09-10T08:54:32.577Z,100013.51
2022-09-10T08:57:02.047Z,100017.45
2022-09-10T08:59:40.576Z,100013.58
2022-09-10T09:02:48.813Z,100017.63
2022-09-10T09:05:20.306Z,100018.26
2022-09-10T09:07:49.440Z,100020.38
2022-09-10T09:10:20.145Z,100023.89
2022-09-10T09:13:06.385Z,100023.42
2022-09-10T09:15:56.082Z,100022.83
2022-09-10T09:18:45.702Z,100023.64
2022-09-10T09:21:17.326Z,100018.92
2022-09-10T09:24:11.638Z,100016.69
2022-09-10T09:26:38.279Z,100018.63
2022-09-10T09:29:21.618Z,100018.36
2022-09-10T09:31:54.600Z,100010.41
2022-09-10T09:34:33.944Z,100007.64
2022-09-10T09:37:04.880Z,100010.11
2022-09-10T09:39:38.532Z,100009.73
2022-09-10T09:42:24.979Z,100003.59
2022-09-10T09:45:02.160Z,99999.02
2022-09-10T09:47:29.667Z,99998.50
2022-09-10T09:49:58.076Z,99996.83
2022-09-10T09:52:29.150Z,99997.11
2022-09-10T09:55:15.136Z,99991.98
2022-09-10T09:57:43.365Z,99985.24
2022-09-10T10:00:37.728Z,99986.50
2022-09-10T10:03:28.191Z,99985.93
2022-09-10T10:06:03.567Z,99981.25
2022-09-10T10:08:31.459Z,99981.62
2022-09-10T10:11:00.145Z,99979.37
2022-09-10T10:13:43.912Z,99978.57
2022-09-10T10:16:21.859Z,99983.00
2022-09-10T10:18:51.028Z,99990.10
2022-09-10T10:21:30.430Z,99990.28
2022-09-10T10:23:58.264Z,99990.63
2022-09-10T10:26:44.000Z,99988.51
2022-09-10T10:29:20.474Z,99984.09
2022-09-10T10:31:50.789Z,99984.33
2022-09-10T10:34:41.274Z,99982.40
2022-09-10T10:37:16.750Z,99982.94
2022-09-10T10:40:09.272Z,99983.80
2022-09-10T10:42:53.810Z,99985.02
2022-09-10T10:45:37.244Z,99984.02
2022-09-10T10:48:26.961Z,99980.85
2022-09-10T10:51:18.184Z,99980.73
2022-09-10T10:54:03.025Z,99983.91
2022-09-10T10:57:02.106Z,99983.01
2022-09-10T10:59:50.386Z,99981.84
2022-09-10T11:02:27.604Z,99978.09
2022-09-10T11:04:58.306Z,99979.23
2022-09-10T11:07:40.918Z,99977.57
2022-09-10T11:10:33.892Z,99969.61
2022-09-10T11:13:23.961Z,99963.77
2022-09-10T11:16:05.494Z,99962.52
2022-09-10T11:18:50.661Z,99965.40
2022-09-10T11:21:38.208Z,99966.06
2022-09-10T11:24:18.893Z,99971.63
2022-09-10T11:27:16.622Z,99970.16
2022-09-10T11:30:08.636Z,99966.96
2022-09-10T11:32:42.717Z,99965.50
2022-09-10T11:35:13.921Z,99966.38
2022-09-10T11:38:03.500Z,99967.91
2022-09-10T11:40:56.278Z,99968.66
2022-09-10T11:43:50.219Z,99965.10
2022-09-10T11:46:26.673Z,99960.70
2022-09-10T11:49:03.947Z,99960.14
2022-09-10T11:51:36.981Z,99958.24
2022-09-10T11:54:10.552Z,99961.30
2022-09-10T11:57:01.569Z,99962.88
2022-09-10T12:00:01.067Z,99964.58
2022-09-10T12:02:58.483Z,99958.53
2022-09-10T12:05:57.945Z,99954.41
2022-09-10T12:08:29.497Z,99948.56
2022-09-10T12:11:15.849Z,99952.33
2022-09-10T12:13:45.814Z,99944.36
2022-09-10T12:16:35.335Z,99938.96
2022-09-10T12:19:30.058Z,99934.69
2022-09-10T12:22:05.562Z,99929.80
2022-09-10T12:24:38.732Z,99926.52
2022-09-10T12:27:07.843Z,99929.45
2022-09-10T12:29:37.718Z,99930.88
2022-09-10T12:32:21.188Z,99935.48
2022-09-10T12:35:23.542Z,99935.48
2022-09-10T12:38:26.896Z,99941.20
2022-09-10T12:40:55.264Z,99938.59
2022-09-10T12:43:39.022Z,99930.50
2022-09-10T12:46:06.649Z,99924.27
2022-09-10T12:48:36.664Z,99922.06
2022-09-10T12:51:42.950Z,99919.80
2022-09-10T12:54:30.188Z,99923.50
2022-09-10T12:57:16.574Z,99927.34
2022-09-10T13:00:16.085Z,99927.91
2022-09-10T13:02:55.353Z,99928.39
2022-09-10T13:05:44.847Z,99927.61
2022-09-10T13:08:15.229Z,99928.65
2022-09-10T13:10:46.343Z,99929.70
2022-09-10T13:13:52.442Z,99925.11
2022-09-10T13:16:26.414Z,99916.80
2022-09-10T13:19:15.276Z,99916.39
2022-09-10T13:21:46.583Z,99914.52
2022-09-10T13:24:36.154Z,99913.23
2022-09-10T13:27:39.605Z,99911.80
2022-09-10T13:30:18.736Z,99910.44
2022-09-10T13:32:55.296Z,99904.44
2022-09-10T13:35:41.869Z,99904.73
2022-09-10T13:38:32.988Z,99905.73
2022-09-10T13:41:32.418Z,99900.23
2022-09-10T13:44:15.906Z,99898.36
2022-09-10T13:46:48.625Z,99899.16
2022-09-10T13:49:26.323Z,99900.73
2022-09-10T13:51:57.361Z,99897.16
2022-09-10T13:54:56.790Z,99895.30
2022-09-10T13:57:35.370Z,99894.73
2022-09-10T14:00:33.394Z,99894.80
2022-09-10T14:03:00.864Z,99893.16
2022-09-10T14:05:46.984Z,99891.62
2022-09-10T14:08:20.727Z,99886.70
2022-09-10T14:11:20.205Z,99886.91
2022-09-10T14:14:06.199Z,99884.98
2022-09-10T14:16:44.491Z,99881.48
2022-09-10T14:19:26.202Z,99882.63
2022-09-10T14:21:54.034Z,99883.42
2022-09-10T14:24:44.789Z,99880.71
2022-09-10T14:27:26.555Z,99882.50
2022-09-10T14:30:16.948Z,99886.05
2022-09-10T14:32:46.129Z,99884.88
2022-09-10T14:35:44.738Z,99886.90
2022-09-10T14:38:36.240Z,99885.84
2022-09-10T14:41:16.459Z,99887.81
2022-09-10T14:43:44.170Z,99886.05
2022-09-10T14:46:33.919Z,99886.84
2022-09-10T14:49:08.813Z,99881.02
2022-09-10T14:51:36.359Z,99877.25
2022-09-10T14:54:03.836Z,99878.11
2022-09-10T14:56:40.554Z,99873.20
2022-09-10T14:59:30.532Z,99871.63
2022-09-10T15:02:00.942Z,99871.84
2022-09-10T15:04:30.044Z,99872.19
2022-09-10T15:07:02.860Z,99877.63
2022-09-10T15:09:31.510Z,99877.41
2022-09-10T15:12:22.593Z,99877.61
2022-09-10T15:14:51.485Z,99875.58
2022-09-10T15:17:19.630Z,99873.91
2022-09-10T15:19:48.272Z,99871.29
2022-09-10T15:22:26.524Z,99871.79
2022-09-10T15:25:11.489Z,99867.34
2022-09-10T15:27:39.302Z,99861.91
2022-09-10T15:30:07.504Z,99862.06
2022-09-10T15:32:35.049Z,99861.17
2022-09-10T15:35:04.237Z,99860.73
2022-09-10T15:37:32.014Z,99859.63
2022-09-10T15:39:59.794Z,99859.75
2022-09-10T15:42:27.269Z,99857.80
2022-09-10T15:44:54.719Z,99850.44
2022-09-10T15:47:22.238Z,99852.84
2022-09-10T15:49:51.232Z,99851.38
2022-09-10T15:52:19.222Z,99850.64
2022-09-10T15:54:46.651Z,99852.60
2022-09-10T15:57:14.059Z,99853.08
2022-09-10T15:59:41.500Z,99856.18
2022-09-10T16:02:13.112Z,99856.81
2022-09-10T16:04:43.048Z,99855.87
2022-09-10T16:07:10.939Z,99850.52
2022-09-10T16:09:38.771Z,99855.02
2022-09-10T16:12:06.414Z,99855.36
2022-09-10T16:14:34.323Z,99859.38
2022-09-10T16:17:02.351Z,99859.95
2022-09-10T16:19:29.766Z,99858.83
2022-09-10T16:21:57.220Z,99861.36
2022-09-10T16:24:24.803Z,99865.30
2022-09-10T16:26:52.198Z,99865.35
2022-09-10T16:29:19.788Z,99865.02
2022-09-10T16:31:48.299Z,99865.73
2022-09-10T16:34:19.396Z,99869.42
2022-09-10T16:36:48.778Z,99869.00
2022-09-10T16:39:18.596Z,99868.20
2022-09-10T16:41:48.765Z,99866.02
2022-09-10T16:44:18.254Z,99862.66
2022-09-10T16:46:47.246Z,99861.73
2022-09-10T16:49:18.251Z,99861.06
2022-09-10T16:51:48.978Z,99866.53
2022-09-10T16:54:19.926Z,99869.40
2022-09-10T16:56:48.707Z,99868.25
2022-09-10T16:59:22.155Z,99866.26
2022-09-10T17:01:51.773Z,99861.48
2022-09-10T17:04:27.496Z,99865.30
2022-09-10T17:06:58.980Z,99866.27
2022-09-10T17:09:26.523Z,99862.77
2022-09-10T17:11:54.353Z,99857.48
2022-09-10T17:14:22.050Z,99860.06
2022-09-10T17:16:49.948Z,99857.75
2022-09-10T17:19:26.194Z,99859.48
2022-09-10T17:21:55.910Z,99859.36
2022-09-10T17:24:26.399Z,99858.03
2022-09-10T17:27:02.528Z,99859.55
2022-09-10T17:29:30.955Z,99861.48
2022-09-10T17:31:59.182Z,99858.93
2022-09-10T17:34:28.241Z,99856.54
2022-09-10T17:36:56.105Z,99855.35
2022-09-10T17:39:28.124Z,99852.95
2022-09-10T17:41:56.466Z,99853.70
2022-09-10T17:44:26.870Z,99854.00
2022-09-10T17:46:55.184Z,99853.14
2022-09-10T17:49:22.657Z,99849.14
2022-09-10T17:51:50.894Z,99845.09
2022-09-10T17:54:19.028Z,99846.65
2022-09-10T17:56:46.507Z,99843.79
2022-09-10T17:59:14.280Z,99838.42
2022-09-10T18:01:43.181Z,99834.48
2022-09-10T18:04:16.012Z,99834.06
2022-09-10T18:06:46.009Z,99836.69
2022-09-10T18:09:16.651Z,99834.41
2022-09-10T18:11:44.556Z,99836.52
2022-09-10T18:14:19.645Z,99837.83
2022-09-10T18:16:47.182Z,99839.27
2022-09-10T18:19:17.055Z,99837.41
2022-09-10T18:21:46.263Z,99839.79
2022-09-10T18:24:24.153Z,99836.73
2022-09-10T18:26:57.319Z,99840.02
2022-09-10T18:29:27.854Z,99840.01
2022-09-10T18:31:57.921Z,99839.48
2022-09-10T18:34:28.017Z,99841.91
2022-09-10T18:36:57.979Z,99833.70
2022-09-10T18:39:27.536Z,99835.08
2022-09-10T18:41:55.414Z,99837.19
2022-09-10T18:44:28.951Z,99835.63
2022-09-10T18:46:56.513Z,99833.20
2022-09-10T18:49:25.100Z,99831.64
2022-09-10T18:51:55.106Z,99841.48
2022-09-10T18:54:24.674Z,99839.98
2022-09-10T18:56:53.312Z,99841.21
2022-09-10T18:59:23.243Z,99840.51
2022-09-10T19:01:53.679Z,99840.30
2022-09-10T19:04:24.132Z,99839.17
2022-09-10T19:06:52.007Z,99836.70
2022-09-10T19:09:22.679Z,99839.33
2022-09-10T19:11:53.099Z,99843.07
2022-09-10T19:14:21.894Z,99842.46
2022-09-10T19:16:51.093Z,99842.45
2022-09-10T19:19:22.120Z,99845.73
2022-09-10T19:21:56.941Z,99846.24
2022-09-10T19:24:43.964Z,99848.98
2022-09-10T19:27:14.012Z,99847.52
2022-09-10T19:29:42.291Z,99849.61
2022-09-10T19:32:11.145Z,99845.08
2022-09-10T19:34:38.919Z,99844.39
2022-09-10T19:37:07.064Z,99838.50
2022-09-10T19:39:34.580Z,99836.78
2022-09-10T19:42:02.101Z,99834.86
2022-09-10T19:44:29.558Z,99833.47
2022-09-10T19:46:57.067Z,99830.08
2022-09-10T19:49:24.493Z,99832.53
2022-09-10T19:51:51.898Z,99829.27
2022-09-10T19:54:19.532Z,99824.81
2022-09-10T19:56:47.528Z,99828.52
2022-09-10T19:59:16.251Z,99826.06
2022-09-10T20:01:45.911Z,99823.65
2022-09-10T20:04:14.392Z,99824.27
2022-09-10T20:06:45.971Z,99823.86
2022-09-10T20:09:13.656Z,99816.27
2022-09-10T20:11:41.267Z,99814.48
2022-09-10T20:14:13.255Z,99813.71
2022-09-10T20:16:45.709Z,99811.11
2022-09-10T20:19:18.105Z,99811.64
2022-09-10T20:21:47.604Z,99809.80
2022-09-10T20:24:16.335Z,99809.89
2022-09-10T20:26:46.220Z,99805.23
2022-09-10T20:29:18.233Z,99800.10
2022-09-10T20:31:46.923Z,99805.15
2022-09-10T20:34:17.782Z,99807.07
2022-09-10T20:36:45.978Z,99802.55
2022-09-10T20:39:17.006Z,99799.58
2022-09-10T20:41:45.474Z,99796.23
2022-09-10T20:44:15.702Z,99796.71
2022-09-10T20:46:44.506Z,99790.23
2022-09-10T20:49:14.094Z,99789.10
2022-09-10T20:51:42.636Z,99790.11
2022-09-10T20:54:13.300Z,99791.98
2022-09-10T20:56:41.008Z,99796.23
2022-09-10T20:59:11.252Z,99792.95
2022-09-10T21:01:39.241Z,99788.59
2022-09-10T21:04:06.828Z,99780.73
2022-09-10T21:06:34.480Z,99783.16
2022-09-10T21:09:04.020Z,99787.42
2022-09-10T21:11:34.012Z,99786.25
2022-09-10T21:14:03.284Z,99785.80
2022-09-10T21:16:38.544Z,99786.83
2022-09-10T21:19:10.059Z,99785.18
2022-09-10T21:21:39.487Z,99785.42
2022-09-10T21:24:10.426Z,99785.32
2022-09-10T21:26:40.448Z,99784.55
2022-09-10T21:29:13.207Z,99783.45
2022-09-10T21:31:41.658Z,99782.14
2022-09-10T21:34:09.414Z,99779.30
2022-09-10T21:36:38.830Z,99777.80
2022-09-10T21:39:11.278Z,99778.88
2022-09-10T21:41:47.220Z,99777.66
2022-09-10T21:44:17.476Z,99776.27
2022-09-10T21:46:46.069Z,99778.33
2022-09-10T21:49:13.607Z,99777.08
2022-09-10T21:51:41.615Z,99779.77
2022-09-10T21:54:22.032Z,99774.67
2022-09-10T21:56:51.473Z,99777.13
2022-09-10T21:59:21.375Z,99776.12
2022-09-10T22:01:49.516Z,99774.91
2022-09-10T22:04:22.588Z,99775.80
2022-09-10T22:06:51.896Z,99776.66
2022-09-10T22:09:21.229Z,99775.98
2022-09-10T22:11:51.876Z,99777.35
2022-09-10T22:14:22.480Z,99777.14
2022-09-10T22:16:51.207Z,99774.86
2022-09-10T22:19:24.546Z,99778.98
2022-09-10T22:21:57.213Z,99773.88
2022-09-10T22:24:25.993Z,99775.23
2022-09-10T22:26:53.614Z,99770.30
2022-09-10T22:29:21.240Z,99771.93
2022-09-10T22:31:50.040Z,99769.85
2022-09-10T22:34:18.312Z,99764.79
2022-09-10T22:36:46.878Z,99763.72
2022-09-10T22:39:20.261Z,99762.64
2022-09-10T22:41:49.266Z,99761.04
2022-09-10T22:44:18.094Z,99761.57
2022-09-10T22:46:45.827Z,99761.59
2022-09-10T22:49:15.434Z,99762.62
2022-09-10T22:51:43.303Z,99758.99
2022-09-10T22:54:11.364Z,99757.77
2022-09-10T22:56:39.758Z,99754.61
2022-09-10T22:59:11.308Z,99753.20
2022-09-10T23:01:40.143Z,99747.41
2022-09-10T23:04:11.418Z,99746.03
2022-09-10T23:06:39.506Z,99743.09
2022-09-10T23:09:18.230Z,99741.37
2022-09-10T23:11:46.127Z,99742.16
2022-09-10T23:14:18.956Z,99738.70
2022-09-10T23:16:48.742Z,99738.32
2022-09-10T23:19:20.146Z,99737.34
2022-09-10T23:21:52.763Z,99731.18
2022-09-10T23:24:26.379Z,99733.77
2022-09-10T23:26:54.363Z,99733.14
2022-09-10T23:29:23.091Z,99728.51
2022-09-10T23:31:53.328Z,99725.90
2022-09-10T23:34:21.373Z,99728.13
2022-09-10T23:36:49.188Z,99728.44
2022-09-10T23:39:20.065Z,99726.30
2022-09-10T23:41:54.185Z,99726.83
2022-09-10T23:44:21.710Z,99724.20
2022-09-10T23:46:49.213Z,99721.77
2022-09-10T23:49:16.817Z,99719.81
2022-09-10T23:51:45.156Z,99717.02
2022-09-10T23:54:12.810Z,99716.68
2022-09-10T23:56:40.787Z,99712.11
2022-09-10T23:59:08.747Z,99710.55
